Terminal Aerodrome Forecast
Issued by NWS

Home | Current Version | Previous Version | Text Only | Print | Product List | Glossary On
Versions: 1 2 3 4 5 6 7 8 9 10 11 12 13
250
FTUS42 TJSJ 281744
TAFISX
TAF
TISX 281744Z 2818/2918 18010KT P6SM -SHRA SCT025 SCT040
     FM282300 35005KT P6SM VCSH FEW025 SCT040 SCT070
     FM291300 02009KT P6SM FEW025 SCT040=

USA.gov is the U.S. government's official web portal to all federal, state and local government web resources and services.